sensor_id;sensor_type;location;lat;lon;timestamp;temperature;humidity
2955;DHT22;1487;51.470;6.938;2023-04-25T00:01:18;6.70;99.90
2955;DHT22;1487;51.470;6.938;2023-04-25T00:03:45;6.70;99.90
2955;DHT22;1487;51.470;6.938;2023-04-25T00:06:12;6.80;99.90
2955;DHT22;1487;51.470;6.938;2023-04-25T00:08:40;6.80;99.90
2955;DHT22;1487;51.470;6.938;2023-04-25T00:11:07;6.80;99.90
2955;DHT22;1487;51.470;6.938;2023-04-25T00:13:37;6.80;99.90
2955;DHT22;1487;51.470;6.938;2023-04-25T00:16:07;6.90;99.90
2955;DHT22;1487;51.470;6.938;2023-04-25T00:18:33;6.90;99.90
2955;DHT22;1487;51.470;6.938;2023-04-25T00:21:00;6.90;99.90
2955;DHT22;1487;51.470;6.938;2023-04-25T00:23:28;6.90;99.90
2955;DHT22;1487;51.470;6.938;2023-04-25T00:25:56;6.90;99.90
2955;DHT22;1487;51.470;6.938;2023-04-25T00:28:22;7.00;99.90
2955;DHT22;1487;51.470;6.938;2023-04-25T00:30:49;7.00;99.90
2955;DHT22;1487;51.470;6.938;2023-04-25T00:33:16;7.00;99.90
2955;DHT22;1487;51.470;6.938;2023-04-25T00:35:43;7.10;99.90
2955;DHT22;1487;51.470;6.938;2023-04-25T00:38:10;7.10;99.90
2955;DHT22;1487;51.470;6.938;2023-04-25T00:40:37;7.10;99.90
2955;DHT22;1487;51.470;6.938;2023-04-25T00:43:05;7.10;99.90
2955;DHT22;1487;51.470;6.938;2023-04-25T00:45:34;7.10;99.90
2955;DHT22;1487;51.470;6.938;2023-04-25T00:48:04;7.10;99.90
2955;DHT22;1487;51.470;6.938;2023-04-25T00:50:33;7.10;99.90
2955;DHT22;1487;51.470;6.938;2023-04-25T00:53:00;7.10;99.90
2955;DHT22;1487;51.470;6.938;2023-04-25T00:55:28;7.10;99.90
2955;DHT22;1487;51.470;6.938;2023-04-25T00:57:57;7.00;99.90
2955;DHT22;1487;51.470;6.938;2023-04-25T01:00:25;7.10;99.90
2955;DHT22;1487;51.470;6.938;2023-04-25T01:02:52;7.10;99.90
2955;DHT22;1487;51.470;6.938;2023-04-25T01:05:19;7.10;99.90
2955;DHT22;1487;51.470;6.938;2023-04-25T01:07:46;7.00;99.90
2955;DHT22;1487;51.470;6.938;2023-04-25T01:10:13;7.00;99.90
2955;DHT22;1487;51.470;6.938;2023-04-25T01:12:41;7.00;99.90
2955;DHT22;1487;51.470;6.938;2023-04-25T01:15:09;7.00;99.90
2955;DHT22;1487;51.470;6.938;2023-04-25T01:17:37;7.00;99.90
2955;DHT22;1487;51.470;6.938;2023-04-25T01:20:05;7.10;99.90
2955;DHT22;1487;51.470;6.938;2023-04-25T01:22:36;7.10;99.90
2955;DHT22;1487;51.470;6.938;2023-04-25T01:25:04;7.10;99.90
2955;DHT22;1487;51.470;6.938;2023-04-25T01:27:31;7.10;99.90
2955;DHT22;1487;51.470;6.938;2023-04-25T01:29:58;7.10;99.90
2955;DHT22;1487;51.470;6.938;2023-04-25T01:32:26;7.10;99.90
2955;DHT22;1487;51.470;6.938;2023-04-25T01:34:53;7.10;99.90
2955;DHT22;1487;51.470;6.938;2023-04-25T01:37:20;7.10;99.90
2955;DHT22;1487;51.470;6.938;2023-04-25T01:39:48;7.10;99.90
2955;DHT22;1487;51.470;6.938;2023-04-25T01:42:15;7.20;99.90
2955;DHT22;1487;51.470;6.938;2023-04-25T01:44:42;7.10;99.90
2955;DHT22;1487;51.470;6.938;2023-04-25T01:47:09;7.10;99.90
2955;DHT22;1487;51.470;6.938;2023-04-25T01:49:36;7.10;99.90
2955;DHT22;1487;51.470;6.938;2023-04-25T01:52:03;7.10;99.90
2955;DHT22;1487;51.470;6.938;2023-04-25T01:54:30;7.10;99.90
2955;DHT22;1487;51.470;6.938;2023-04-25T01:56:58;7.10;99.90
2955;DHT22;1487;51.470;6.938;2023-04-25T01:59:25;7.10;99.90
2955;DHT22;1487;51.470;6.938;2023-04-25T02:01:52;7.10;99.90
2955;DHT22;1487;51.470;6.938;2023-04-25T02:04:19;7.10;99.90
2955;DHT22;1487;51.470;6.938;2023-04-25T02:06:46;7.10;99.90
2955;DHT22;1487;51.470;6.938;2023-04-25T02:09:12;7.10;99.90
2955;DHT22;1487;51.470;6.938;2023-04-25T02:11:39;7.10;99.90
2955;DHT22;1487;51.470;6.938;2023-04-25T02:14:07;7.10;99.90
2955;DHT22;1487;51.470;6.938;2023-04-25T02:16:34;7.10;99.90
2955;DHT22;1487;51.470;6.938;2023-04-25T02:19:01;7.10;99.90
2955;DHT22;1487;51.470;6.938;2023-04-25T02:21:28;7.10;99.90
2955;DHT22;1487;51.470;6.938;2023-04-25T02:23:55;7.10;99.90
2955;DHT22;1487;51.470;6.938;2023-04-25T02:28:55;7.00;99.90
2955;DHT22;1487;51.470;6.938;2023-04-25T02:31:23;7.10;99.90
2955;DHT22;1487;51.470;6.938;2023-04-25T02:33:49;7.00;99.90
2955;DHT22;1487;51.470;6.938;2023-04-25T02:36:16;7.00;99.90
2955;DHT22;1487;51.470;6.938;2023-04-25T02:38:43;7.10;99.90
2955;DHT22;1487;51.470;6.938;2023-04-25T02:41:10;7.10;99.90
2955;DHT22;1487;51.470;6.938;2023-04-25T02:43:37;7.10;99.90
2955;DHT22;1487;51.470;6.938;2023-04-25T02:46:03;7.10;99.90
2955;DHT22;1487;51.470;6.938;2023-04-25T02:48:31;7.10;99.90
2955;DHT22;1487;51.470;6.938;2023-04-25T02:50:58;7.10;99.90
2955;DHT22;1487;51.470;6.938;2023-04-25T02:53:25;7.10;99.90
2955;DHT22;1487;51.470;6.938;2023-04-25T02:55:52;7.10;99.90
2955;DHT22;1487;51.470;6.938;2023-04-25T02:58:19;7.10;99.90
2955;DHT22;1487;51.470;6.938;2023-04-25T03:00:46;7.10;99.90
2955;DHT22;1487;51.470;6.938;2023-04-25T03:03:12;7.10;99.90
2955;DHT22;1487;51.470;6.938;2023-04-25T03:05:41;7.10;99.90
2955;DHT22;1487;51.470;6.938;2023-04-25T03:08:08;7.10;99.90
2955;DHT22;1487;51.470;6.938;2023-04-25T03:10:35;7.10;99.90
2955;DHT22;1487;51.470;6.938;2023-04-25T03:13:02;7.10;99.90
2955;DHT22;1487;51.470;6.938;2023-04-25T03:15:28;7.10;99.90
2955;DHT22;1487;51.470;6.938;2023-04-25T03:17:56;7.10;99.90
2955;DHT22;1487;51.470;6.938;2023-04-25T03:20:23;7.00;99.90
2955;DHT22;1487;51.470;6.938;2023-04-25T03:22:51;7.10;99.90
2955;DHT22;1487;51.470;6.938;2023-04-25T03:25:18;7.00;99.90
2955;DHT22;1487;51.470;6.938;2023-04-25T03:27:45;6.90;99.90
2955;DHT22;1487;51.470;6.938;2023-04-25T03:30:12;6.90;99.90
2955;DHT22;1487;51.470;6.938;2023-04-25T03:32:39;6.90;99.90
2955;DHT22;1487;51.470;6.938;2023-04-25T03:35:06;6.80;99.90
2955;DHT22;1487;51.470;6.938;2023-04-25T03:37:33;6.80;99.90
2955;DHT22;1487;51.470;6.938;2023-04-25T03:40:02;6.80;99.90
2955;DHT22;1487;51.470;6.938;2023-04-25T03:42:30;6.80;99.90
2955;DHT22;1487;51.470;6.938;2023-04-25T03:44:56;6.70;99.90
2955;DHT22;1487;51.470;6.938;2023-04-25T03:47:23;6.70;99.90
2955;DHT22;1487;51.470;6.938;2023-04-25T03:49:50;6.70;99.90
2955;DHT22;1487;51.470;6.938;2023-04-25T03:52:17;6.70;99.90
2955;DHT22;1487;51.470;6.938;2023-04-25T03:54:44;6.70;99.90
2955;DHT22;1487;51.470;6.938;2023-04-25T03:57:12;6.70;99.90
2955;DHT22;1487;51.470;6.938;2023-04-25T03:59:39;6.70;99.90
2955;DHT22;1487;51.470;6.938;2023-04-25T04:02:05;6.70;99.90
2955;DHT22;1487;51.470;6.938;2023-04-25T04:04:32;6.70;99.90
2955;DHT22;1487;51.470;6.938;2023-04-25T04:06:59;6.60;99.90
2955;DHT22;1487;51.470;6.938;2023-04-25T04:09:26;6.60;99.90
2955;DHT22;1487;51.470;6.938;2023-04-25T04:11:53;6.50;99.90
2955;DHT22;1487;51.470;6.938;2023-04-25T04:14:21;6.40;99.90
2955;DHT22;1487;51.470;6.938;2023-04-25T04:16:47;6.40;99.90
2955;DHT22;1487;51.470;6.938;2023-04-25T04:19:14;6.30;99.90
2955;DHT22;1487;51.470;6.938;2023-04-25T04:21:41;6.30;99.90
2955;DHT22;1487;51.470;6.938;2023-04-25T04:24:08;6.30;99.90
2955;DHT22;1487;51.470;6.938;2023-04-25T04:26:35;6.30;99.90
2955;DHT22;1487;51.470;6.938;2023-04-25T04:29:04;6.30;99.90
2955;DHT22;1487;51.470;6.938;2023-04-25T04:31:33;6.30;99.90
2955;DHT22;1487;51.470;6.938;2023-04-25T04:34:01;6.40;99.90
2955;DHT22;1487;51.470;6.938;2023-04-25T04:36:29;6.40;99.90
2955;DHT22;1487;51.470;6.938;2023-04-25T04:38:55;6.40;99.90
2955;DHT22;1487;51.470;6.938;2023-04-25T04:41:22;6.30;99.90
2955;DHT22;1487;51.470;6.938;2023-04-25T04:43:49;6.30;99.90
2955;DHT22;1487;51.470;6.938;2023-04-25T04:46:16;6.20;99.90
2955;DHT22;1487;51.470;6.938;2023-04-25T04:48:45;6.20;99.90
2955;DHT22;1487;51.470;6.938;2023-04-25T04:51:11;6.20;99.90
2955;DHT22;1487;51.470;6.938;2023-04-25T04:53:38;6.20;99.90
2955;DHT22;1487;51.470;6.938;2023-04-25T04:56:05;6.20;99.90
2955;DHT22;1487;51.470;6.938;2023-04-25T04:58:32;6.10;99.90
2955;DHT22;1487;51.470;6.938;2023-04-25T05:01:00;6.20;99.90
2955;DHT22;1487;51.470;6.938;2023-04-25T05:03:27;6.20;99.90
2955;DHT22;1487;51.470;6.938;2023-04-25T05:05:55;6.20;99.90
2955;DHT22;1487;51.470;6.938;2023-04-25T05:08:22;6.20;99.90
2955;DHT22;1487;51.470;6.938;2023-04-25T05:10:48;6.10;99.90
2955;DHT22;1487;51.470;6.938;2023-04-25T05:13:15;6.20;99.90
2955;DHT22;1487;51.470;6.938;2023-04-25T05:15:42;6.20;99.90
2955;DHT22;1487;51.470;6.938;2023-04-25T05:18:09;6.20;99.90
2955;DHT22;1487;51.470;6.938;2023-04-25T05:20:36;6.20;99.90
2955;DHT22;1487;51.470;6.938;2023-04-25T05:23:04;6.20;99.90
2955;DHT22;1487;51.470;6.938;2023-04-25T05:25:31;6.20;99.90
2955;DHT22;1487;51.470;6.938;2023-04-25T05:27:57;6.30;99.90
2955;DHT22;1487;51.470;6.938;2023-04-25T05:30:24;6.30;99.90
2955;DHT22;1487;51.470;6.938;2023-04-25T05:32:51;6.40;99.90
2955;DHT22;1487;51.470;6.938;2023-04-25T05:35:18;6.50;99.90
2955;DHT22;1487;51.470;6.938;2023-04-25T05:37:45;6.60;99.90
2955;DHT22;1487;51.470;6.938;2023-04-25T05:40:13;6.60;99.90
2955;DHT22;1487;51.470;6.938;2023-04-25T05:42:40;6.70;99.90
2955;DHT22;1487;51.470;6.938;2023-04-25T05:45:07;6.80;99.90
2955;DHT22;1487;51.470;6.938;2023-04-25T05:47:35;6.90;99.90
2955;DHT22;1487;51.470;6.938;2023-04-25T05:50:01;6.90;99.90
2955;DHT22;1487;51.470;6.938;2023-04-25T05:52:28;7.00;99.90
2955;DHT22;1487;51.470;6.938;2023-04-25T05:54:55;7.00;99.90
2955;DHT22;1487;51.470;6.938;2023-04-25T05:57:25;7.00;99.90
2955;DHT22;1487;51.470;6.938;2023-04-25T05:59:52;7.00;99.90
2955;DHT22;1487;51.470;6.938;2023-04-25T06:02:20;7.10;99.90
2955;DHT22;1487;51.470;6.938;2023-04-25T06:04:47;7.20;99.90
2955;DHT22;1487;51.470;6.938;2023-04-25T06:07:14;7.30;99.90
2955;DHT22;1487;51.470;6.938;2023-04-25T06:09:41;7.40;99.90
2955;DHT22;1487;51.470;6.938;2023-04-25T06:12:08;7.50;99.90
2955;DHT22;1487;51.470;6.938;2023-04-25T06:14:36;7.70;99.90
2955;DHT22;1487;51.470;6.938;2023-04-25T06:17:03;7.80;99.90
2955;DHT22;1487;51.470;6.938;2023-04-25T06:19:32;7.90;99.90
2955;DHT22;1487;51.470;6.938;2023-04-25T06:21:58;8.70;99.90
2955;DHT22;1487;51.470;6.938;2023-04-25T06:24:25;10.30;99.90
2955;DHT22;1487;51.470;6.938;2023-04-25T06:26:52;12.20;99.90
2955;DHT22;1487;51.470;6.938;2023-04-25T06:29:19;13.70;99.90
2955;DHT22;1487;51.470;6.938;2023-04-25T06:31:47;15.10;99.90
2955;DHT22;1487;51.470;6.938;2023-04-25T06:34:14;15.70;99.90
2955;DHT22;1487;51.470;6.938;2023-04-25T06:36:40;15.30;99.90
2955;DHT22;1487;51.470;6.938;2023-04-25T06:39:07;14.60;99.90
2955;DHT22;1487;51.470;6.938;2023-04-25T06:41:34;13.40;99.90
2955;DHT22;1487;51.470;6.938;2023-04-25T06:44:01;12.70;99.90
2955;DHT22;1487;51.470;6.938;2023-04-25T06:46:28;12.10;99.90
2955;DHT22;1487;51.470;6.938;2023-04-25T06:48:56;11.60;99.90
2955;DHT22;1487;51.470;6.938;2023-04-25T06:51:22;11.10;99.90
2955;DHT22;1487;51.470;6.938;2023-04-25T06:53:49;10.80;99.90
2955;DHT22;1487;51.470;6.938;2023-04-25T06:56:16;10.40;99.90
2955;DHT22;1487;51.470;6.938;2023-04-25T06:58:43;10.10;99.90
2955;DHT22;1487;51.470;6.938;2023-04-25T07:01:10;9.90;99.90
2955;DHT22;1487;51.470;6.938;2023-04-25T07:03:36;9.80;99.90
2955;DHT22;1487;51.470;6.938;2023-04-25T07:06:05;9.70;99.90
2955;DHT22;1487;51.470;6.938;2023-04-25T07:08:32;9.50;99.90
2955;DHT22;1487;51.470;6.938;2023-04-25T07:10:59;9.40;99.90
2955;DHT22;1487;51.470;6.938;2023-04-25T07:13:26;9.30;99.90
2955;DHT22;1487;51.470;6.938;2023-04-25T07:15:52;9.20;99.90
2955;DHT22;1487;51.470;6.938;2023-04-25T07:18:19;9.10;99.90
2955;DHT22;1487;51.470;6.938;2023-04-25T07:20:46;9.20;99.90
2955;DHT22;1487;51.470;6.938;2023-04-25T07:23:14;9.30;99.90
2955;DHT22;1487;51.470;6.938;2023-04-25T07:25:41;9.60;99.90
2955;DHT22;1487;51.470;6.938;2023-04-25T07:28:08;9.60;99.90
2955;DHT22;1487;51.470;6.938;2023-04-25T07:30:34;9.70;99.90
2955;DHT22;1487;51.470;6.938;2023-04-25T07:33:02;9.70;99.90
2955;DHT22;1487;51.470;6.938;2023-04-25T07:35:29;9.60;99.90
2955;DHT22;1487;51.470;6.938;2023-04-25T07:37:55;9.90;99.90
2955;DHT22;1487;51.470;6.938;2023-04-25T07:40:24;10.80;99.90
2955;DHT22;1487;51.470;6.938;2023-04-25T07:42:50;12.10;99.90
2955;DHT22;1487;51.470;6.938;2023-04-25T07:45:17;13.70;99.90
2955;DHT22;1487;51.470;6.938;2023-04-25T07:47:44;14.50;99.90
2955;DHT22;1487;51.470;6.938;2023-04-25T07:50:11;15.00;99.90
2955;DHT22;1487;51.470;6.938;2023-04-25T07:52:38;15.50;96.00
2955;DHT22;1487;51.470;6.938;2023-04-25T07:55:05;15.50;93.20
2955;DHT22;1487;51.470;6.938;2023-04-25T07:57:33;15.30;93.60
2955;DHT22;1487;51.470;6.938;2023-04-25T08:00:00;15.90;96.60
2955;DHT22;1487;51.470;6.938;2023-04-25T08:02:27;15.70;91.40
2955;DHT22;1487;51.470;6.938;2023-04-25T08:04:53;16.10;91.70
2955;DHT22;1487;51.470;6.938;2023-04-25T08:07:20;15.60;91.10
2955;DHT22;1487;51.470;6.938;2023-04-25T08:09:47;15.00;89.90
2955;DHT22;1487;51.470;6.938;2023-04-25T08:12:14;14.70;92.40
2955;DHT22;1487;51.470;6.938;2023-04-25T08:14:42;14.80;92.50
2955;DHT22;1487;51.470;6.938;2023-04-25T08:17:09;15.90;91.80
2955;DHT22;1487;51.470;6.938;2023-04-25T08:19:36;16.80;88.80
2955;DHT22;1487;51.470;6.938;2023-04-25T08:22:03;18.10;88.30
2955;DHT22;1487;51.470;6.938;2023-04-25T08:24:30;17.80;77.30
2955;DHT22;1487;51.470;6.938;2023-04-25T08:26:57;16.70;78.90
2955;DHT22;1487;51.470;6.938;2023-04-25T08:29:24;16.60;80.30
2955;DHT22;1487;51.470;6.938;2023-04-25T08:31:52;16.30;79.80
2955;DHT22;1487;51.470;6.938;2023-04-25T08:34:19;15.10;80.30
2955;DHT22;1487;51.470;6.938;2023-04-25T08:36:46;14.10;85.90
2955;DHT22;1487;51.470;6.938;2023-04-25T08:39:13;14.00;92.30
2955;DHT22;1487;51.470;6.938;2023-04-25T08:41:40;13.60;94.10
2955;DHT22;1487;51.470;6.938;2023-04-25T08:44:10;13.30;95.20
2955;DHT22;1487;51.470;6.938;2023-04-25T08:46:38;13.10;96.20
2955;DHT22;1487;51.470;6.938;2023-04-25T08:49:07;13.10;97.10
2955;DHT22;1487;51.470;6.938;2023-04-25T08:51:38;13.10;97.00
2955;DHT22;1487;51.470;6.938;2023-04-25T08:54:09;13.30;99.90
2955;DHT22;1487;51.470;6.938;2023-04-25T08:56:37;13.90;99.60
2955;DHT22;1487;51.470;6.938;2023-04-25T08:59:05;14.40;99.50
2955;DHT22;1487;51.470;6.938;2023-04-25T09:01:33;14.60;90.90
2955;DHT22;1487;51.470;6.938;2023-04-25T09:04:00;14.70;91.90
2955;DHT22;1487;51.470;6.938;2023-04-25T09:06:29;14.70;86.60
2955;DHT22;1487;51.470;6.938;2023-04-25T09:09:02;14.80;90.50
2955;DHT22;1487;51.470;6.938;2023-04-25T09:11:29;15.00;86.80
2955;DHT22;1487;51.470;6.938;2023-04-25T09:14:11;15.10;87.30
2955;DHT22;1487;51.470;6.938;2023-04-25T09:16:57;14.70;86.20
2955;DHT22;1487;51.470;6.938;2023-04-25T09:19:26;14.90;90.20
2955;DHT22;1487;51.470;6.938;2023-04-25T09:21:56;15.30;89.00
2955;DHT22;1487;51.470;6.938;2023-04-25T09:24:34;15.10;84.20
2955;DHT22;1487;51.470;6.938;2023-04-25T09:27:03;15.90;87.70
2955;DHT22;1487;51.470;6.938;2023-04-25T09:29:31;16.90;81.80
2955;DHT22;1487;51.470;6.938;2023-04-25T09:32:19;17.40;77.30
2955;DHT22;1487;51.470;6.938;2023-04-25T09:34:47;18.00;73.80
2955;DHT22;1487;51.470;6.938;2023-04-25T09:37:19;18.50;73.20
2955;DHT22;1487;51.470;6.938;2023-04-25T09:39:46;18.50;65.10
2955;DHT22;1487;51.470;6.938;2023-04-25T09:42:13;18.70;63.40
2955;DHT22;1487;51.470;6.938;2023-04-25T09:44:44;18.60;65.00
2955;DHT22;1487;51.470;6.938;2023-04-25T09:47:12;18.30;64.60
2955;DHT22;1487;51.470;6.938;2023-04-25T09:49:40;18.10;62.30
2955;DHT22;1487;51.470;6.938;2023-04-25T09:52:15;18.10;63.40
2955;DHT22;1487;51.470;6.938;2023-04-25T09:54:44;18.50;64.80
2955;DHT22;1487;51.470;6.938;2023-04-25T09:57:12;19.60;66.80
2955;DHT22;1487;51.470;6.938;2023-04-25T09:59:42;20.40;62.60
2955;DHT22;1487;51.470;6.938;2023-04-25T10:02:10;20.50;60.80
2955;DHT22;1487;51.470;6.938;2023-04-25T10:04:38;20.80;59.50
2955;DHT22;1487;51.470;6.938;2023-04-25T10:07:08;20.80;58.30
2955;DHT22;1487;51.470;6.938;2023-04-25T10:09:37;19.70;58.90
2955;DHT22;1487;51.470;6.938;2023-04-25T10:12:07;18.60;58.90
2955;DHT22;1487;51.470;6.938;2023-04-25T10:14:34;17.60;58.50
2955;DHT22;1487;51.470;6.938;2023-04-25T10:17:01;16.50;61.10
2955;DHT22;1487;51.470;6.938;2023-04-25T10:19:28;16.30;62.20
2955;DHT22;1487;51.470;6.938;2023-04-25T10:22:02;15.80;65.40
2955;DHT22;1487;51.470;6.938;2023-04-25T10:24:30;15.90;63.80
2955;DHT22;1487;51.470;6.938;2023-04-25T10:26:57;16.10;65.40
2955;DHT22;1487;51.470;6.938;2023-04-25T10:29:26;16.20;65.30
2955;DHT22;1487;51.470;6.938;2023-04-25T10:31:53;16.30;64.00
2955;DHT22;1487;51.470;6.938;2023-04-25T10:34:24;16.20;66.50
2955;DHT22;1487;51.470;6.938;2023-04-25T10:36:59;15.90;65.20
2955;DHT22;1487;51.470;6.938;2023-04-25T10:39:29;15.10;64.70
2955;DHT22;1487;51.470;6.938;2023-04-25T10:41:57;14.40;67.90
2955;DHT22;1487;51.470;6.938;2023-04-25T10:44:27;13.60;71.50
2955;DHT22;1487;51.470;6.938;2023-04-25T10:46:55;12.70;75.40
2955;DHT22;1487;51.470;6.938;2023-04-25T10:49:30;12.00;80.60
2955;DHT22;1487;51.470;6.938;2023-04-25T10:52:27;11.60;90.60
2955;DHT22;1487;51.470;6.938;2023-04-25T10:54:56;11.40;99.90
2955;DHT22;1487;51.470;6.938;2023-04-25T10:57:28;11.30;99.90
2955;DHT22;1487;51.470;6.938;2023-04-25T11:00:00;11.20;99.90
2955;DHT22;1487;51.470;6.938;2023-04-25T11:02:31;10.80;99.90
2955;DHT22;1487;51.470;6.938;2023-04-25T11:04:58;10.50;99.90
2955;DHT22;1487;51.470;6.938;2023-04-25T11:07:31;10.30;99.90
2955;DHT22;1487;51.470;6.938;2023-04-25T11:10:02;10.50;99.90
2955;DHT22;1487;51.470;6.938;2023-04-25T11:12:30;10.80;99.90
2955;DHT22;1487;51.470;6.938;2023-04-25T11:15:04;11.00;99.90
2955;DHT22;1487;51.470;6.938;2023-04-25T11:17:31;11.30;99.90
2955;DHT22;1487;51.470;6.938;2023-04-25T11:19:58;11.80;99.90
2955;DHT22;1487;51.470;6.938;2023-04-25T11:22:26;12.40;99.90
2955;DHT22;1487;51.470;6.938;2023-04-25T11:24:54;13.30;99.90
2955;DHT22;1487;51.470;6.938;2023-04-25T11:27:21;14.40;99.90
2955;DHT22;1487;51.470;6.938;2023-04-25T11:29:50;15.40;95.40
2955;DHT22;1487;51.470;6.938;2023-04-25T11:32:18;16.10;86.10
2955;DHT22;1487;51.470;6.938;2023-04-25T11:34:46;15.90;77.90
2955;DHT22;1487;51.470;6.938;2023-04-25T11:37:13;16.00;77.20
2955;DHT22;1487;51.470;6.938;2023-04-25T11:39:43;17.10;79.20
2955;DHT22;1487;51.470;6.938;2023-04-25T11:42:11;18.10;76.70
2955;DHT22;1487;51.470;6.938;2023-04-25T11:44:39;19.70;77.10
2955;DHT22;1487;51.470;6.938;2023-04-25T11:47:06;20.80;73.50
2955;DHT22;1487;51.470;6.938;2023-04-25T11:49:35;21.70;67.40
2955;DHT22;1487;51.470;6.938;2023-04-25T11:52:02;22.10;60.50
2955;DHT22;1487;51.470;6.938;2023-04-25T11:54:29;21.00;57.70
2955;DHT22;1487;51.470;6.938;2023-04-25T11:56:56;19.80;59.70
2955;DHT22;1487;51.470;6.938;2023-04-25T11:59:24;18.80;59.80
2955;DHT22;1487;51.470;6.938;2023-04-25T12:01:51;17.60;61.30
2955;DHT22;1487;51.470;6.938;2023-04-25T12:04:20;16.60;63.30
2955;DHT22;1487;51.470;6.938;2023-04-25T12:06:51;15.70;64.60
2955;DHT22;1487;51.470;6.938;2023-04-25T12:09:19;15.30;69.20
2955;DHT22;1487;51.470;6.938;2023-04-25T12:11:48;14.90;70.90
2955;DHT22;1487;51.470;6.938;2023-04-25T12:14:23;14.60;70.10
2955;DHT22;1487;51.470;6.938;2023-04-25T12:16:50;14.40;73.60
2955;DHT22;1487;51.470;6.938;2023-04-25T12:19:18;13.80;75.00
2955;DHT22;1487;51.470;6.938;2023-04-25T12:21:46;13.70;75.00
2955;DHT22;1487;51.470;6.938;2023-04-25T12:24:15;13.40;74.40
2955;DHT22;1487;51.470;6.938;2023-04-25T12:26:47;13.30;76.20
2955;DHT22;1487;51.470;6.938;2023-04-25T12:29:18;13.20;78.50
2955;DHT22;1487;51.470;6.938;2023-04-25T12:31:46;13.10;80.20
2955;DHT22;1487;51.470;6.938;2023-04-25T12:34:12;13.60;80.00
2955;DHT22;1487;51.470;6.938;2023-04-25T12:36:40;14.50;81.00
2955;DHT22;1487;51.470;6.938;2023-04-25T12:39:06;15.90;72.10
2955;DHT22;1487;51.470;6.938;2023-04-25T12:41:34;17.20;71.00
2955;DHT22;1487;51.470;6.938;2023-04-25T12:44:02;18.50;66.80
2955;DHT22;1487;51.470;6.938;2023-04-25T12:46:29;19.50;60.20
2955;DHT22;1487;51.470;6.938;2023-04-25T12:48:56;20.80;62.80
2955;DHT22;1487;51.470;6.938;2023-04-25T12:51:23;21.90;59.40
2955;DHT22;1487;51.470;6.938;2023-04-25T12:53:51;22.10;56.10
2955;DHT22;1487;51.470;6.938;2023-04-25T12:56:18;22.40;55.90
2955;DHT22;1487;51.470;6.938;2023-04-25T12:58:46;22.20;54.40
2955;DHT22;1487;51.470;6.938;2023-04-25T13:01:13;21.30;54.10
2955;DHT22;1487;51.470;6.938;2023-04-25T13:03:40;20.20;53.40
2955;DHT22;1487;51.470;6.938;2023-04-25T13:06:07;18.70;56.40
2955;DHT22;1487;51.470;6.938;2023-04-25T13:08:34;17.00;59.10
2955;DHT22;1487;51.470;6.938;2023-04-25T13:11:04;15.60;63.50
2955;DHT22;1487;51.470;6.938;2023-04-25T13:13:31;14.30;68.70
2955;DHT22;1487;51.470;6.938;2023-04-25T13:16:01;13.70;76.80
2955;DHT22;1487;51.470;6.938;2023-04-25T13:18:28;12.60;99.90
2955;DHT22;1487;51.470;6.938;2023-04-25T13:20:55;12.00;99.90
2955;DHT22;1487;51.470;6.938;2023-04-25T13:23:22;11.60;99.90
2955;DHT22;1487;51.470;6.938;2023-04-25T13:25:50;11.30;99.90
2955;DHT22;1487;51.470;6.938;2023-04-25T13:28:16;11.00;99.90
2955;DHT22;1487;51.470;6.938;2023-04-25T13:30:44;11.10;99.90
2955;DHT22;1487;51.470;6.938;2023-04-25T13:33:12;11.50;99.90
2955;DHT22;1487;51.470;6.938;2023-04-25T13:35:39;12.90;99.90
2955;DHT22;1487;51.470;6.938;2023-04-25T13:38:06;14.20;99.90
2955;DHT22;1487;51.470;6.938;2023-04-25T13:40:32;15.50;99.90
2955;DHT22;1487;51.470;6.938;2023-04-25T13:42:59;16.20;92.90
2955;DHT22;1487;51.470;6.938;2023-04-25T13:45:26;17.00;85.10
2955;DHT22;1487;51.470;6.938;2023-04-25T13:47:53;17.80;79.20
2955;DHT22;1487;51.470;6.938;2023-04-25T13:50:21;18.80;73.80
2955;DHT22;1487;51.470;6.938;2023-04-25T13:52:48;19.60;70.20
2955;DHT22;1487;51.470;6.938;2023-04-25T13:55:14;19.40;63.60
2955;DHT22;1487;51.470;6.938;2023-04-25T13:57:41;18.90;67.40
2955;DHT22;1487;51.470;6.938;2023-04-25T14:00:10;18.90;65.50
2955;DHT22;1487;51.470;6.938;2023-04-25T14:02:37;18.40;66.20
2955;DHT22;1487;51.470;6.938;2023-04-25T14:05:05;18.30;65.80
2955;DHT22;1487;51.470;6.938;2023-04-25T14:07:33;18.60;60.90
2955;DHT22;1487;51.470;6.938;2023-04-25T14:10:01;19.40;60.90
2955;DHT22;1487;51.470;6.938;2023-04-25T14:12:29;19.40;61.40
2955;DHT22;1487;51.470;6.938;2023-04-25T14:14:56;20.00;59.70
2955;DHT22;1487;51.470;6.938;2023-04-25T14:17:23;20.20;59.40
2955;DHT22;1487;51.470;6.938;2023-04-25T14:19:50;20.80;60.20
2955;DHT22;1487;51.470;6.938;2023-04-25T14:22:17;20.50;56.70
2955;DHT22;1487;51.470;6.938;2023-04-25T14:24:46;19.50;55.70
2955;DHT22;1487;51.470;6.938;2023-04-25T14:27:12;19.10;57.00
2955;DHT22;1487;51.470;6.938;2023-04-25T14:29:39;17.40;56.50
2955;DHT22;1487;51.470;6.938;2023-04-25T14:32:06;16.60;59.40
2955;DHT22;1487;51.470;6.938;2023-04-25T14:34:33;15.80;60.20
2955;DHT22;1487;51.470;6.938;2023-04-25T14:37:00;15.70;59.70
2955;DHT22;1487;51.470;6.938;2023-04-25T14:39:27;16.30;60.50
2955;DHT22;1487;51.470;6.938;2023-04-25T14:41:55;17.00;60.50
2955;DHT22;1487;51.470;6.938;2023-04-25T14:44:22;17.20;58.60
2955;DHT22;1487;51.470;6.938;2023-04-25T14:46:49;17.00;58.90
2955;DHT22;1487;51.470;6.938;2023-04-25T14:49:17;16.70;60.30
2955;DHT22;1487;51.470;6.938;2023-04-25T14:51:44;16.10;62.60
2955;DHT22;1487;51.470;6.938;2023-04-25T14:54:10;15.40;65.10
2955;DHT22;1487;51.470;6.938;2023-04-25T14:56:37;15.10;68.10
2955;DHT22;1487;51.470;6.938;2023-04-25T14:59:05;15.30;68.80
2955;DHT22;1487;51.470;6.938;2023-04-25T15:01:32;15.00;68.50
2955;DHT22;1487;51.470;6.938;2023-04-25T15:03:59;15.00;68.50
2955;DHT22;1487;51.470;6.938;2023-04-25T15:06:26;14.50;68.40
2955;DHT22;1487;51.470;6.938;2023-04-25T15:08:54;14.30;68.60
2955;DHT22;1487;51.470;6.938;2023-04-25T15:11:21;14.70;70.40
2955;DHT22;1487;51.470;6.938;2023-04-25T15:13:47;15.20;68.60
2955;DHT22;1487;51.470;6.938;2023-04-25T15:16:16;15.80;67.40
2955;DHT22;1487;51.470;6.938;2023-04-25T15:18:42;16.40;67.00
2955;DHT22;1487;51.470;6.938;2023-04-25T15:21:09;16.30;64.10
2955;DHT22;1487;51.470;6.938;2023-04-25T15:23:36;16.10;64.80
2955;DHT22;1487;51.470;6.938;2023-04-25T15:26:03;15.60;65.40
2955;DHT22;1487;51.470;6.938;2023-04-25T15:28:30;15.00;66.10
2955;DHT22;1487;51.470;6.938;2023-04-25T15:30:59;14.70;66.20
2955;DHT22;1487;51.470;6.938;2023-04-25T15:33:27;14.40;66.30
2955;DHT22;1487;51.470;6.938;2023-04-25T15:35:54;14.00;66.40
2955;DHT22;1487;51.470;6.938;2023-04-25T15:38:21;13.90;67.90
2955;DHT22;1487;51.470;6.938;2023-04-25T15:40:48;13.90;67.50
2955;DHT22;1487;51.470;6.938;2023-04-25T15:43:15;13.80;66.60
2955;DHT22;1487;51.470;6.938;2023-04-25T15:45:42;13.60;65.90
2955;DHT22;1487;51.470;6.938;2023-04-25T15:48:09;13.60;67.60
2955;DHT22;1487;51.470;6.938;2023-04-25T15:50:38;13.40;66.50
2955;DHT22;1487;51.470;6.938;2023-04-25T15:53:05;13.20;66.50
2955;DHT22;1487;51.470;6.938;2023-04-25T15:55:31;12.90;65.90
2955;DHT22;1487;51.470;6.938;2023-04-25T15:57:58;12.80;68.10
2955;DHT22;1487;51.470;6.938;2023-04-25T16:00:25;12.30;68.50
2955;DHT22;1487;51.470;6.938;2023-04-25T16:02:52;12.30;69.90
2955;DHT22;1487;51.470;6.938;2023-04-25T16:05:19;12.30;69.90
2955;DHT22;1487;51.470;6.938;2023-04-25T16:07:48;12.30;71.30
2955;DHT22;1487;51.470;6.938;2023-04-25T16:10:14;12.30;70.80
2955;DHT22;1487;51.470;6.938;2023-04-25T16:12:44;12.20;71.20
2955;DHT22;1487;51.470;6.938;2023-04-25T16:15:12;12.10;71.50